首页
METAR-TAF:

METAR-TAF

机场 :

奥斯陆加勒穆恩机场

奥斯陆, 挪威

纬度: 60-12N, 经度: 011-05E, 海拔: 208米

当前天气观测

该预报发布于22分钟前的19:20 UTC
风速7节,风向西南
温度 23°C
湿度 38%
气压 1014 hPa
能见度10公里或以上
1500米以下无云,无积雨云

METAR: ENGM 151920Z 22007KT CAVOK 23/08 Q1014 NOSIG

时间: 21:42 (19:42 UTC)

预报

预报有效从15日的 18点(UTC)到 16日的 18点(UTC)
风速12节,风向
能见度10公里或以上
1500米以下无云,无积雨云
成为
从 15日的 21点(UTC)到 15日的 23点(UTC)
风速5节,风向多变
几率 40%
从 16日的 02点(UTC)到 16日的 07点(UTC)
能见度10公里或以上
多云层高于800英尺
成为
从 16日的 11点(UTC)到 16日的 13点(UTC)
风速10节,风向

TAF: ENGM 1518/1618 19012KT CAVOK BECMG 1521/1523 VRB05KT PROB40 1602/1607 9999 BKN008 BECMG 1611/1613 18010KT

超过4000个机场的气象观测和天气预报(METAR&TAF报告)。

可查询的气象台以黄色和红色小点在地图上表示。

将鼠标移到小点上方,可查看气象台名称。

然后点击查看天气观测和预报。

如需切换地图:点击带黑十字的绿色按钮放大地图;点击带横线的绿色按钮缩小地图;或者点击绿色箭头查看邻近地区的地图。


METAR-TAF: